sensor_id;sensor_type;location;lat;lon;timestamp;pressure;altitude;pressure_sealevel;temperature;humidity
14790;BME280;7486;51.010;10.366;2023-06-14T00:01:06;98220.97;;;11.31;53.52
14790;BME280;7486;51.010;10.366;2023-06-14T00:03:52;98043.44;;;10.16;53.95
14790;BME280;7486;51.010;10.366;2023-06-14T00:06:37;98106.91;;;10.36;54.48
14790;BME280;7486;51.010;10.366;2023-06-14T00:09:23;98000.78;;;9.66;54.94
14790;BME280;7486;51.010;10.366;2023-06-14T00:12:09;97797.75;;;8.26;55.34
14790;BME280;7486;51.010;10.366;2023-06-14T00:14:54;97897.13;;;8.92;55.22
14790;BME280;7486;51.010;10.366;2023-06-14T00:17:40;98177.59;;;10.61;55.58
14790;BME280;7486;51.010;10.366;2023-06-14T00:20:25;98136.63;;;10.38;55.35
14790;BME280;7486;51.010;10.366;2023-06-14T00:23:11;98034.97;;;9.75;55.65
14790;BME280;7486;51.010;10.366;2023-06-14T00:25:57;98195.69;;;10.71;55.84
14790;BME280;7486;51.010;10.366;2023-06-14T00:28:43;98144.19;;;10.34;56.31
14790;BME280;7486;51.010;10.366;2023-06-14T00:31:28;98227.09;;;10.67;56.57
14790;BME280;7486;51.010;10.366;2023-06-14T00:34:14;98016.84;;;9.45;56.36
14790;BME280;7486;51.010;10.366;2023-06-14T00:36:59;98000.78;;;9.60;56.02
14790;BME280;7486;51.010;10.366;2023-06-14T00:39:45;98056.31;;;9.93;55.97
14790;BME280;7486;51.010;10.366;2023-06-14T00:42:31;98132.19;;;10.25;56.26
14790;BME280;7486;51.010;10.366;2023-06-14T00:45:17;98212.59;;;10.77;56.57
14790;BME280;7486;51.010;10.366;2023-06-14T00:48:03;97983.72;;;9.36;56.55
14790;BME280;7486;51.010;10.366;2023-06-14T00:50:50;97837.34;;;8.32;56.71
14790;BME280;7486;51.010;10.366;2023-06-14T00:53:36;97956.03;;;9.19;56.69
14790;BME280;7486;51.010;10.366;2023-06-14T00:56:21;98070.56;;;9.85;56.58
14790;BME280;7486;51.010;10.366;2023-06-14T00:59:09;98180.63;;;10.32;57.06
14790;BME280;7486;51.010;10.366;2023-06-14T01:01:54;98182.69;;;10.30;57.56
14790;BME280;7486;51.010;10.366;2023-06-14T01:04:41;98214.47;;;10.50;57.83
14790;BME280;7486;51.010;10.366;2023-06-14T01:13:45;98224.22;;;10.62;57.13
14790;BME280;7486;51.010;10.366;2023-06-14T01:16:32;98045.97;;;9.58;57.26
14790;BME280;7486;51.010;10.366;2023-06-14T01:19:17;98194.09;;;10.44;57.09
14790;BME280;7486;51.010;10.366;2023-06-14T01:22:03;97818.81;;;8.06;57.38
14790;BME280;7486;51.010;10.366;2023-06-14T01:24:49;97971.03;;;8.73;58.07
14790;BME280;7486;51.010;10.366;2023-06-14T01:27:36;98227.69;;;10.23;58.18
14790;BME280;7486;51.010;10.366;2023-06-14T01:30:22;98160.06;;;10.21;57.10
14790;BME280;7486;51.010;10.366;2023-06-14T01:33:08;98187.34;;;10.48;57.02
14790;BME280;7486;51.010;10.366;2023-06-14T01:35:54;98170.84;;;10.65;55.82
14790;BME280;7486;51.010;10.366;2023-06-14T01:38:42;98154.13;;;10.58;56.05
14790;BME280;7486;51.010;10.366;2023-06-14T01:41:30;98044.47;;;10.02;55.71
14790;BME280;7486;51.010;10.366;2023-06-14T01:44:17;98122.38;;;10.39;56.17
14790;BME280;7486;51.010;10.366;2023-06-14T01:47:04;98155.59;;;10.15;57.68
14790;BME280;7486;51.010;10.366;2023-06-14T01:49:51;98216.25;;;10.69;56.93
14790;BME280;7486;51.010;10.366;2023-06-14T01:52:37;98227.84;;;10.88;56.02
14790;BME280;7486;51.010;10.366;2023-06-14T01:55:22;98205.09;;;10.54;56.37
14790;BME280;7486;51.010;10.366;2023-06-14T01:58:09;98217.28;;;10.81;56.19
14790;BME280;7486;51.010;10.366;2023-06-14T02:00:55;98165.97;;;10.56;55.18
14790;BME280;7486;51.010;10.366;2023-06-14T02:03:41;98218.66;;;10.97;55.05
14790;BME280;7486;51.010;10.366;2023-06-14T02:06:26;98139.91;;;10.33;55.06
14790;BME280;7486;51.010;10.366;2023-06-14T02:09:12;98078.91;;;9.95;55.61
14790;BME280;7486;51.010;10.366;2023-06-14T02:11:57;98100.47;;;9.86;56.89
14790;BME280;7486;51.010;10.366;2023-06-14T02:14:44;97983.63;;;8.70;58.44
14790;BME280;7486;51.010;10.366;2023-06-14T02:17:30;98227.28;;;10.20;58.70
14790;BME280;7486;51.010;10.366;2023-06-14T02:20:15;98025.94;;;8.97;59.06
14790;BME280;7486;51.010;10.366;2023-06-14T02:23:02;97974.84;;;8.50;58.78
14790;BME280;7486;51.010;10.366;2023-06-14T02:25:49;98111.59;;;9.35;60.09
14790;BME280;7486;51.010;10.366;2023-06-14T02:28:35;98192.84;;;10.07;58.22
14790;BME280;7486;51.010;10.366;2023-06-14T02:31:20;98227.69;;;10.43;57.49
14790;BME280;7486;51.010;10.366;2023-06-14T02:34:06;97926.16;;;8.73;56.36
14790;BME280;7486;51.010;10.366;2023-06-14T02:36:51;98194.50;;;10.41;56.79
14790;BME280;7486;51.010;10.366;2023-06-14T02:39:37;98111.47;;;9.96;56.51
14790;BME280;7486;51.010;10.366;2023-06-14T02:42:23;98149.50;;;10.08;56.69
14790;BME280;7486;51.010;10.366;2023-06-14T02:45:09;98051.00;;;9.27;57.00
14790;BME280;7486;51.010;10.366;2023-06-14T02:47:54;97994.84;;;8.99;56.84
14790;BME280;7486;51.010;10.366;2023-06-14T02:50:40;98082.72;;;9.27;57.60
14790;BME280;7486;51.010;10.366;2023-06-14T02:53:26;98012.78;;;8.49;58.62
14790;BME280;7486;51.010;10.366;2023-06-14T02:56:11;98240.16;;;9.49;60.10
14790;BME280;7486;51.010;10.366;2023-06-14T02:58:58;98081.63;;;8.13;61.23
14790;BME280;7486;51.010;10.366;2023-06-14T03:01:43;98185.94;;;8.71;62.29
14790;BME280;7486;51.010;10.366;2023-06-14T03:04:31;98178.25;;;8.77;62.28
14790;BME280;7486;51.010;10.366;2023-06-14T03:07:17;98018.91;;;7.81;61.92
14790;BME280;7486;51.010;10.366;2023-06-14T03:10:03;98171.38;;;8.82;61.43
14790;BME280;7486;51.010;10.366;2023-06-14T03:12:48;98090.47;;;8.06;62.43
14790;BME280;7486;51.010;10.366;2023-06-14T03:15:35;97989.28;;;7.24;63.76
14790;BME280;7486;51.010;10.366;2023-06-14T03:18:21;98176.78;;;8.40;64.23
14790;BME280;7486;51.010;10.366;2023-06-14T03:21:10;98270.78;;;8.62;65.80
14790;BME280;7486;51.010;10.366;2023-06-14T03:23:59;97910.13;;;6.61;65.89
14790;BME280;7486;51.010;10.366;2023-06-14T03:26:45;98221.56;;;8.54;66.11
14790;BME280;7486;51.010;10.366;2023-06-14T03:29:33;98050.31;;;7.76;65.40
14790;BME280;7486;51.010;10.366;2023-06-14T03:32:19;98152.06;;;8.47;64.59
14790;BME280;7486;51.010;10.366;2023-06-14T03:35:05;98165.97;;;8.62;64.58
14790;BME280;7486;51.010;10.366;2023-06-14T03:37:51;98155.97;;;8.51;64.77
14790;BME280;7486;51.010;10.366;2023-06-14T03:40:36;98031.72;;;7.84;64.43
14790;BME280;7486;51.010;10.366;2023-06-14T03:43:24;98199.03;;;8.93;64.14
14790;BME280;7486;51.010;10.366;2023-06-14T03:46:11;98195.94;;;8.83;64.38
14790;BME280;7486;51.010;10.366;2023-06-14T03:48:57;98280.13;;;9.33;64.44
14790;BME280;7486;51.010;10.366;2023-06-14T03:51:43;98248.38;;;9.20;64.23
14790;BME280;7486;51.010;10.366;2023-06-14T03:54:29;98193.31;;;8.83;64.04
14790;BME280;7486;51.010;10.366;2023-06-14T03:57:36;98079.91;;;8.27;64.14
14790;BME280;7486;51.010;10.366;2023-06-14T04:00:26;98063.91;;;8.35;63.31
14790;BME280;7486;51.010;10.366;2023-06-14T04:03:11;98191.06;;;9.27;62.71
14790;BME280;7486;51.010;10.366;2023-06-14T04:05:57;98181.72;;;9.25;62.99
14790;BME280;7486;51.010;10.366;2023-06-14T04:08:42;98111.34;;;9.17;61.18
14790;BME280;7486;51.010;10.366;2023-06-14T04:11:28;98151.56;;;9.06;62.19
14790;BME280;7486;51.010;10.366;2023-06-14T04:14:15;98237.63;;;9.82;61.79
14790;BME280;7486;51.010;10.366;2023-06-14T04:17:00;98101.41;;;9.26;60.45
14790;BME280;7486;51.010;10.366;2023-06-14T04:19:46;98077.34;;;9.01;60.27
14790;BME280;7486;51.010;10.366;2023-06-14T04:22:31;98141.75;;;9.60;60.12
14790;BME280;7486;51.010;10.366;2023-06-14T04:25:18;98300.63;;;10.65;60.01
14790;BME280;7486;51.010;10.366;2023-06-14T04:28:09;98300.81;;;10.84;59.11
14790;BME280;7486;51.010;10.366;2023-06-14T04:30:55;98238.06;;;10.32;59.34
14790;BME280;7486;51.010;10.366;2023-06-14T04:33:41;98344.44;;;10.75;60.00
14790;BME280;7486;51.010;10.366;2023-06-14T04:36:28;98199.69;;;9.49;61.57
14790;BME280;7486;51.010;10.366;2023-06-14T04:39:16;98317.50;;;10.38;60.38
14790;BME280;7486;51.010;10.366;2023-06-14T04:42:01;98213.44;;;9.31;62.05
14790;BME280;7486;51.010;10.366;2023-06-14T04:44:47;98225.91;;;9.44;62.18
14790;BME280;7486;51.010;10.366;2023-06-14T04:47:32;98250.22;;;9.80;62.06
14790;BME280;7486;51.010;10.366;2023-06-14T04:50:18;98322.59;;;10.33;62.74
14790;BME280;7486;51.010;10.366;2023-06-14T04:53:03;98282.88;;;10.13;62.26
14790;BME280;7486;51.010;10.366;2023-06-14T04:55:49;98354.03;;;10.95;61.15
14790;BME280;7486;51.010;10.366;2023-06-14T04:58:37;98161.50;;;9.71;62.10
14790;BME280;7486;51.010;10.366;2023-06-14T05:01:23;98304.91;;;10.66;62.43
14790;BME280;7486;51.010;10.366;2023-06-14T05:04:08;98170.06;;;10.06;60.90
14790;BME280;7486;51.010;10.366;2023-06-14T05:06:54;98347.63;;;11.42;59.59
14790;BME280;7486;51.010;10.366;2023-06-14T05:09:40;98113.06;;;9.57;60.78
14790;BME280;7486;51.010;10.366;2023-06-14T05:12:25;98353.78;;;11.30;60.00
14790;BME280;7486;51.010;10.366;2023-06-14T05:15:11;98350.06;;;11.37;60.21
14790;BME280;7486;51.010;10.366;2023-06-14T05:17:57;98317.50;;;11.10;60.01
14790;BME280;7486;51.010;10.366;2023-06-14T05:20:42;98146.63;;;10.42;59.26
14790;BME280;7486;51.010;10.366;2023-06-14T05:23:28;98278.28;;;11.39;58.29
14790;BME280;7486;51.010;10.366;2023-06-14T05:26:13;98103.31;;;9.84;59.40
14790;BME280;7486;51.010;10.366;2023-06-14T05:28:59;98169.44;;;10.56;58.56
14790;BME280;7486;51.010;10.366;2023-06-14T05:31:45;98092.13;;;10.02;58.89
14790;BME280;7486;51.010;10.366;2023-06-14T05:34:30;98329.63;;;11.51;58.79
14790;BME280;7486;51.010;10.366;2023-06-14T05:37:16;98325.59;;;11.35;59.63
14790;BME280;7486;51.010;10.366;2023-06-14T05:40:02;98274.13;;;10.92;60.30
14790;BME280;7486;51.010;10.366;2023-06-14T05:42:48;98291.41;;;11.07;59.49
14790;BME280;7486;51.010;10.366;2023-06-14T05:45:33;98309.53;;;11.17;59.34
14790;BME280;7486;51.010;10.366;2023-06-14T05:48:19;98227.63;;;11.02;59.16
14790;BME280;7486;51.010;10.366;2023-06-14T05:51:04;98308.00;;;11.60;58.87
14790;BME280;7486;51.010;10.366;2023-06-14T05:53:50;98317.41;;;12.01;58.26
14790;BME280;7486;51.010;10.366;2023-06-14T05:56:36;98291.06;;;11.99;56.62
14790;BME280;7486;51.010;10.366;2023-06-14T05:59:24;98206.91;;;11.31;57.63
14790;BME280;7486;51.010;10.366;2023-06-14T06:02:09;98191.38;;;11.34;57.77
14790;BME280;7486;51.010;10.366;2023-06-14T06:04:55;98261.84;;;11.75;57.01
14790;BME280;7486;51.010;10.366;2023-06-14T06:07:41;98232.78;;;11.35;57.66
14790;BME280;7486;51.010;10.366;2023-06-14T06:10:26;98283.19;;;11.86;57.51
14790;BME280;7486;51.010;10.366;2023-06-14T06:13:12;98273.50;;;11.67;58.20
14790;BME280;7486;51.010;10.366;2023-06-14T06:15:58;98295.66;;;12.17;57.25
14790;BME280;7486;51.010;10.366;2023-06-14T06:18:43;97960.34;;;10.23;56.44
14790;BME280;7486;51.010;10.366;2023-06-14T06:21:30;98204.78;;;12.15;56.11
14790;BME280;7486;51.010;10.366;2023-06-14T06:24:15;98388.63;;;13.54;54.85
14790;BME280;7486;51.010;10.366;2023-06-14T06:27:01;98241.69;;;12.23;55.52
14790;BME280;7486;51.010;10.366;2023-06-14T06:29:46;98237.09;;;12.37;55.06
14790;BME280;7486;51.010;10.366;2023-06-14T06:32:32;98339.84;;;12.43;56.22
14790;BME280;7486;51.010;10.366;2023-06-14T06:35:17;98254.63;;;11.82;57.30
14790;BME280;7486;51.010;10.366;2023-06-14T06:38:03;98277.88;;;11.86;57.11
14790;BME280;7486;51.010;10.366;2023-06-14T06:40:48;98368.59;;;12.84;56.17
14790;BME280;7486;51.010;10.366;2023-06-14T06:43:34;98300.88;;;12.61;55.72
14790;BME280;7486;51.010;10.366;2023-06-14T06:46:20;98370.88;;;13.23;56.36
14790;BME280;7486;51.010;10.366;2023-06-14T06:49:06;98372.66;;;12.86;57.07
14790;BME280;7486;51.010;10.366;2023-06-14T06:52:05;98384.84;;;12.69;58.24
14790;BME280;7486;51.010;10.366;2023-06-14T06:54:51;98365.72;;;12.47;57.72
14790;BME280;7486;51.010;10.366;2023-06-14T06:57:36;98355.16;;;12.41;58.84
14790;BME280;7486;51.010;10.366;2023-06-14T07:00:22;98189.38;;;11.30;59.64
14790;BME280;7486;51.010;10.366;2023-06-14T07:03:10;98206.59;;;11.58;58.34
14790;BME280;7486;51.010;10.366;2023-06-14T07:05:55;98363.53;;;13.00;57.39
14790;BME280;7486;51.010;10.366;2023-06-14T07:08:40;98305.41;;;13.22;55.78
14790;BME280;7486;51.010;10.366;2023-06-14T07:11:26;98366.31;;;13.30;56.38
14790;BME280;7486;51.010;10.366;2023-06-14T07:14:11;98201.91;;;12.41;57.13
14790;BME280;7486;51.010;10.366;2023-06-14T07:16:57;98398.03;;;13.93;55.67
14790;BME280;7486;51.010;10.366;2023-06-14T07:19:42;98271.44;;;13.06;56.24
14790;BME280;7486;51.010;10.366;2023-06-14T07:22:29;98253.78;;;13.30;54.38
14790;BME280;7486;51.010;10.366;2023-06-14T07:25:15;98387.22;;;13.88;54.98
14790;BME280;7486;51.010;10.366;2023-06-14T07:28:01;98411.63;;;14.33;55.31
14790;BME280;7486;51.010;10.366;2023-06-14T07:30:47;98321.78;;;13.80;54.43
14790;BME280;7486;51.010;10.366;2023-06-14T07:33:32;98156.75;;;12.41;53.67
14790;BME280;7486;51.010;10.366;2023-06-14T07:36:18;98344.28;;;13.23;54.22
14790;BME280;7486;51.010;10.366;2023-06-14T07:39:04;98407.63;;;13.76;54.48
14790;BME280;7486;51.010;10.366;2023-06-14T07:41:50;98197.69;;;12.58;53.73
14790;BME280;7486;51.010;10.366;2023-06-14T07:44:35;98312.84;;;13.56;54.54
14790;BME280;7486;51.010;10.366;2023-06-14T07:47:21;98413.63;;;14.37;54.64
14790;BME280;7486;51.010;10.366;2023-06-14T07:50:08;98181.63;;;12.90;53.69
14790;BME280;7486;51.010;10.366;2023-06-14T07:52:56;98269.59;;;13.61;53.02
14790;BME280;7486;51.010;10.366;2023-06-14T07:55:42;98352.28;;;14.44;52.73
14790;BME280;7486;51.010;10.366;2023-06-14T07:58:38;98164.31;;;13.17;53.05
14790;BME280;7486;51.010;10.366;2023-06-14T08:01:23;98206.44;;;13.68;53.18
14790;BME280;7486;51.010;10.366;2023-06-14T08:04:09;98385.97;;;14.80;51.42
14790;BME280;7486;51.010;10.366;2023-06-14T08:06:54;98321.94;;;14.56;52.41
14790;BME280;7486;51.010;10.366;2023-06-14T08:09:40;98310.09;;;14.41;52.39
14790;BME280;7486;51.010;10.366;2023-06-14T08:12:25;98277.19;;;14.05;51.64
14790;BME280;7486;51.010;10.366;2023-06-14T08:15:11;98390.63;;;14.43;52.52
14790;BME280;7486;51.010;10.366;2023-06-14T08:17:58;98207.47;;;13.67;53.07
14790;BME280;7486;51.010;10.366;2023-06-14T08:20:44;98343.88;;;14.70;53.50
14790;BME280;7486;51.010;10.366;2023-06-14T08:23:29;98283.63;;;14.39;52.04
14790;BME280;7486;51.010;10.366;2023-06-14T08:26:15;98381.66;;;15.32;51.36
14790;BME280;7486;51.010;10.366;2023-06-14T08:29:00;98406.72;;;15.31;52.22
14790;BME280;7486;51.010;10.366;2023-06-14T08:31:46;98339.19;;;15.30;49.81
14790;BME280;7486;51.010;10.366;2023-06-14T08:34:32;98346.47;;;15.11;50.24
14790;BME280;7486;51.010;10.366;2023-06-14T08:37:17;98294.63;;;14.61;50.75
14790;BME280;7486;51.010;10.366;2023-06-14T08:40:02;98273.72;;;14.46;50.17
14790;BME280;7486;51.010;10.366;2023-06-14T08:42:53;98406.84;;;15.47;50.75
14790;BME280;7486;51.010;10.366;2023-06-14T08:45:39;98002.75;;;13.01;49.89
14790;BME280;7486;51.010;10.366;2023-06-14T08:48:26;98414.00;;;15.58;50.53
14790;BME280;7486;51.010;10.366;2023-06-14T08:51:12;98383.25;;;15.67;50.66
14790;BME280;7486;51.010;10.366;2023-06-14T08:53:58;98319.56;;;14.78;49.65
14790;BME280;7486;51.010;10.366;2023-06-14T08:56:44;98392.78;;;15.17;48.91
14790;BME280;7486;51.010;10.366;2023-06-14T08:59:30;98299.59;;;14.81;50.66
14790;BME280;7486;51.010;10.366;2023-06-14T09:02:16;98313.06;;;15.09;50.07
14790;BME280;7486;51.010;10.366;2023-06-14T09:05:01;98337.09;;;15.32;49.24
14790;BME280;7486;51.010;10.366;2023-06-14T09:07:47;98139.88;;;14.33;49.20
14790;BME280;7486;51.010;10.366;2023-06-14T09:10:33;98372.97;;;15.48;48.63
14790;BME280;7486;51.010;10.366;2023-06-14T09:13:18;98220.88;;;14.43;48.74
14790;BME280;7486;51.010;10.366;2023-06-14T09:16:05;98164.53;;;14.16;48.88
14790;BME280;7486;51.010;10.366;2023-06-14T09:18:51;98258.56;;;14.82;47.66
14790;BME280;7486;51.010;10.366;2023-06-14T09:21:37;98325.88;;;15.70;47.63
14790;BME280;7486;51.010;10.366;2023-06-14T09:24:24;98307.13;;;14.84;47.50
14790;BME280;7486;51.010;10.366;2023-06-14T09:27:15;98413.22;;;14.82;49.54
14790;BME280;7486;51.010;10.366;2023-06-14T09:30:04;98400.94;;;14.81;50.28
14790;BME280;7486;51.010;10.366;2023-06-14T09:32:50;97938.22;;;12.16;49.04
14790;BME280;7486;51.010;10.366;2023-06-14T09:35:36;98375.53;;;14.78;48.19
14790;BME280;7486;51.010;10.366;2023-06-14T09:38:21;98282.44;;;14.42;47.87
14790;BME280;7486;51.010;10.366;2023-06-14T09:41:07;98241.88;;;14.74;48.57
14790;BME280;7486;51.010;10.366;2023-06-14T09:43:53;98325.00;;;15.41;46.64
14790;BME280;7486;51.010;10.366;2023-06-14T09:46:39;98431.13;;;16.20;47.60
14790;BME280;7486;51.010;10.366;2023-06-14T09:49:24;98366.81;;;15.99;46.04
14790;BME280;7486;51.010;10.366;2023-06-14T09:52:13;98424.31;;;16.41;46.51
14790;BME280;7486;51.010;10.366;2023-06-14T09:54:59;98403.38;;;16.10;46.04
14790;BME280;7486;51.010;10.366;2023-06-14T09:57:47;98439.03;;;16.15;46.26
14790;BME280;7486;51.010;10.366;2023-06-14T10:00:34;98317.56;;;15.55;47.10
14790;BME280;7486;51.010;10.366;2023-06-14T10:03:28;98245.81;;;15.58;46.27
14790;BME280;7486;51.010;10.366;2023-06-14T10:06:26;98259.94;;;15.99;46.60
14790;BME280;7486;51.010;10.366;2023-06-14T10:09:12;98435.25;;;17.46;44.95
14790;BME280;7486;51.010;10.366;2023-06-14T10:11:57;98237.72;;;15.82;44.77
14790;BME280;7486;51.010;10.366;2023-06-14T10:14:42;98439.38;;;17.04;44.87
14790;BME280;7486;51.010;10.366;2023-06-14T10:20:34;98350.22;;;17.20;44.72
14790;BME280;7486;51.010;10.366;2023-06-14T10:23:23;98385.00;;;17.53;41.95
14790;BME280;7486;51.010;10.366;2023-06-14T10:26:18;98393.44;;;17.45;43.86
14790;BME280;7486;51.010;10.366;2023-06-14T10:29:08;97875.28;;;14.44;41.71
14790;BME280;7486;51.010;10.366;2023-06-14T10:31:56;98279.56;;;16.49;42.42
14790;BME280;7486;51.010;10.366;2023-06-14T10:34:42;98277.28;;;16.74;43.22
14790;BME280;7486;51.010;10.366;2023-06-14T10:37:27;98288.69;;;17.42;43.19
14790;BME280;7486;51.010;10.366;2023-06-14T10:40:30;98422.53;;;17.75;42.17
14790;BME280;7486;51.010;10.366;2023-06-14T10:43:23;98428.44;;;17.22;43.04
14790;BME280;7486;51.010;10.366;2023-06-14T10:48:58;98387.63;;;16.37;44.04
14790;BME280;7486;51.010;10.366;2023-06-14T10:51:44;98393.88;;;16.59;45.16
14790;BME280;7486;51.010;10.366;2023-06-14T10:54:30;98331.34;;;16.60;42.74
14790;BME280;7486;51.010;10.366;2023-06-14T10:57:15;98324.63;;;16.01;42.22
14790;BME280;7486;51.010;10.366;2023-06-14T11:00:01;98236.38;;;15.67;43.28
14790;BME280;7486;51.010;10.366;2023-06-14T11:05:53;98409.97;;;16.47;44.70
14790;BME280;7486;51.010;10.366;2023-06-14T11:11:33;98389.78;;;17.51;42.66
14790;BME280;7486;51.010;10.366;2023-06-14T11:14:19;98371.41;;;17.77;40.83
14790;BME280;7486;51.010;10.366;2023-06-14T11:17:05;98325.91;;;17.82;40.08
14790;BME280;7486;51.010;10.366;2023-06-14T11:19:50;98386.16;;;17.79;40.75
14790;BME280;7486;51.010;10.366;2023-06-14T11:22:41;97790.50;;;13.56;41.15
14790;BME280;7486;51.010;10.366;2023-06-14T11:25:27;98056.34;;;15.63;40.13
14790;BME280;7486;51.010;10.366;2023-06-14T11:28:13;98377.69;;;18.09;40.85
14790;BME280;7486;51.010;10.366;2023-06-14T11:31:03;98381.59;;;18.23;38.46
14790;BME280;7486;51.010;10.366;2023-06-14T11:33:50;98398.88;;;18.32;40.23
14790;BME280;7486;51.010;10.366;2023-06-14T11:36:35;98379.69;;;18.18;40.01
14790;BME280;7486;51.010;10.366;2023-06-14T11:39:24;98371.41;;;18.47;39.60
14790;BME280;7486;51.010;10.366;2023-06-14T11:42:16;98377.19;;;18.60;37.55
14790;BME280;7486;51.010;10.366;2023-06-14T11:45:02;98399.03;;;18.42;38.43
14790;BME280;7486;51.010;10.366;2023-06-14T11:47:55;98390.44;;;18.72;38.45
14790;BME280;7486;51.010;10.366;2023-06-14T11:50:40;98375.06;;;18.62;38.84
14790;BME280;7486;51.010;10.366;2023-06-14T11:53:26;98198.00;;;17.50;38.53
14790;BME280;7486;51.010;10.366;2023-06-14T11:56:11;98240.13;;;17.55;38.23
14790;BME280;7486;51.010;10.366;2023-06-14T11:58:56;98392.97;;;18.57;38.07
14790;BME280;7486;51.010;10.366;2023-06-14T12:01:43;98388.28;;;18.42;38.52
14790;BME280;7486;51.010;10.366;2023-06-14T12:04:29;98285.38;;;18.00;39.03
14790;BME280;7486;51.010;10.366;2023-06-14T12:07:16;98336.81;;;18.77;38.35
14790;BME280;7486;51.010;10.366;2023-06-14T12:12:47;98291.25;;;18.23;35.22
14790;BME280;7486;51.010;10.366;2023-06-14T12:15:32;98113.97;;;17.03;36.99
14790;BME280;7486;51.010;10.366;2023-06-14T12:18:18;98382.44;;;18.77;37.25
14790;BME280;7486;51.010;10.366;2023-06-14T12:21:07;98376.00;;;19.10;37.81
14790;BME280;7486;51.010;10.366;2023-06-14T12:23:53;98218.94;;;18.02;38.17
14790;BME280;7486;51.010;10.366;2023-06-14T12:26:39;98237.88;;;17.90;36.87
14790;BME280;7486;51.010;10.366;2023-06-14T12:29:25;98302.59;;;18.04;38.75
14790;BME280;7486;51.010;10.366;2023-06-14T12:32:11;98289.00;;;17.89;39.17
14790;BME280;7486;51.010;10.366;2023-06-14T12:34:57;98366.31;;;18.23;37.04
14790;BME280;7486;51.010;10.366;2023-06-14T12:37:42;98377.56;;;17.99;38.80
14790;BME280;7486;51.010;10.366;2023-06-14T12:40:28;98384.47;;;18.38;38.12
14790;BME280;7486;51.010;10.366;2023-06-14T12:43:13;98147.56;;;16.94;38.76
14790;BME280;7486;51.010;10.366;2023-06-14T12:46:00;98375.06;;;18.62;37.52
14790;BME280;7486;51.010;10.366;2023-06-14T12:48:45;98360.28;;;18.60;38.37
14790;BME280;7486;51.010;10.366;2023-06-14T12:51:31;98275.25;;;18.34;38.46
14790;BME280;7486;51.010;10.366;2023-06-14T12:54:16;98323.31;;;18.99;38.19
14790;BME280;7486;51.010;10.366;2023-06-14T12:57:16;98349.16;;;19.10;35.72
14790;BME280;7486;51.010;10.366;2023-06-14T13:00:02;98359.75;;;18.90;36.65
14790;BME280;7486;51.010;10.366;2023-06-14T13:02:47;98313.09;;;19.01;37.60
14790;BME280;7486;51.010;10.366;2023-06-14T13:05:33;97911.72;;;16.53;37.01
14790;BME280;7486;51.010;10.366;2023-06-14T13:08:18;98370.63;;;19.42;36.36
14790;BME280;7486;51.010;10.366;2023-06-14T13:11:06;98304.91;;;18.81;36.25
14790;BME280;7486;51.010;10.366;2023-06-14T13:13:52;98294.66;;;18.14;38.31
14790;BME280;7486;51.010;10.366;2023-06-14T13:16:37;98267.16;;;18.02;37.47
14790;BME280;7486;51.010;10.366;2023-06-14T13:19:22;98172.03;;;16.86;39.03
14790;BME280;7486;51.010;10.366;2023-06-14T13:22:08;98272.03;;;17.56;37.47
14790;BME280;7486;51.010;10.366;2023-06-14T13:24:53;98297.75;;;18.01;37.77
14790;BME280;7486;51.010;10.366;2023-06-14T13:27:39;98284.63;;;18.31;37.49
14790;BME280;7486;51.010;10.366;2023-06-14T13:30:26;98314.84;;;18.48;38.25
14790;BME280;7486;51.010;10.366;2023-06-14T13:33:12;98353.00;;;18.29;37.52
14790;BME280;7486;51.010;10.366;2023-06-14T13:35:58;98325.47;;;17.90;38.31
14790;BME280;7486;51.010;10.366;2023-06-14T13:38:44;98357.03;;;18.31;38.71
14790;BME280;7486;51.010;10.366;2023-06-14T13:41:33;98269.84;;;17.53;38.81
14790;BME280;7486;51.010;10.366;2023-06-14T13:44:19;98190.00;;;17.07;37.94
14790;BME280;7486;51.010;10.366;2023-06-14T13:47:04;98306.75;;;17.51;39.02
14790;BME280;7486;51.010;10.366;2023-06-14T13:49:50;98390.22;;;18.03;39.78
14790;BME280;7486;51.010;10.366;2023-06-14T13:52:36;98360.88;;;17.92;39.01
14790;BME280;7486;51.010;10.366;2023-06-14T13:55:21;98387.78;;;18.02;39.70
14790;BME280;7486;51.010;10.366;2023-06-14T13:58:07;98311.94;;;17.58;40.49
14790;BME280;7486;51.010;10.366;2023-06-14T14:00:52;98305.72;;;17.52;39.39
14790;BME280;7486;51.010;10.366;2023-06-14T14:03:38;98376.50;;;18.00;40.38
14790;BME280;7486;51.010;10.366;2023-06-14T14:06:24;98310.44;;;17.89;39.81
14790;BME280;7486;51.010;10.366;2023-06-14T14:09:09;98208.06;;;17.16;40.39
14790;BME280;7486;51.010;10.366;2023-06-14T14:11:54;98174.22;;;16.34;41.25
14790;BME280;7486;51.010;10.366;2023-06-14T14:14:40;98394.31;;;17.67;41.11
14790;BME280;7486;51.010;10.366;2023-06-14T14:17:26;98383.13;;;17.70;39.62
14790;BME280;7486;51.010;10.366;2023-06-14T14:20:12;98166.06;;;16.23;40.63
14790;BME280;7486;51.010;10.366;2023-06-14T14:22:59;98381.88;;;17.23;40.41
14790;BME280;7486;51.010;10.366;2023-06-14T14:25:44;98341.16;;;16.88;40.69
14790;BME280;7486;51.010;10.366;2023-06-14T14:28:31;98347.47;;;16.82;41.56
14790;BME280;7486;51.010;10.366;2023-06-14T14:31:17;98232.56;;;16.53;41.44
14790;BME280;7486;51.010;10.366;2023-06-14T14:34:03;98233.00;;;16.84;40.96
14790;BME280;7486;51.010;10.366;2023-06-14T14:36:51;98280.53;;;16.93;40.03
14790;BME280;7486;51.010;10.366;2023-06-14T14:39:36;98311.72;;;17.21;40.30
14790;BME280;7486;51.010;10.366;2023-06-14T14:42:22;98152.19;;;15.93;40.68
14790;BME280;7486;51.010;10.366;2023-06-14T14:45:07;98170.69;;;16.11;39.76
14790;BME280;7486;51.010;10.366;2023-06-14T14:47:53;98251.44;;;16.47;40.79
14790;BME280;7486;51.010;10.366;2023-06-14T14:50:41;98370.66;;;17.43;40.74
14790;BME280;7486;51.010;10.366;2023-06-14T14:53:28;98366.75;;;17.34;39.89
14790;BME280;7486;51.010;10.366;2023-06-14T14:56:14;98368.34;;;16.96;41.36
14790;BME280;7486;51.010;10.366;2023-06-14T14:58:59;98229.09;;;16.08;41.22
14790;BME280;7486;51.010;10.366;2023-06-14T15:01:44;98374.91;;;17.22;42.76
14790;BME280;7486;51.010;10.366;2023-06-14T15:04:30;98367.06;;;17.37;41.47